Westford, VT (05494)

2:28 AM EST op 21 februari 2017 (GMT -0500)
Huntley Rd. | | Change Station

Hoogte 518 ft 44.63 °N, 73.00 °W | Updated 12 seconds ago

Gedeeltelijk bewolkt
Gedeeltelijk bewolkt
13.3 °F
Voelt als 13 °F
N
0.0
Wind Variabel Wind van WZW
Gusts 0.0 mijl/u

Vandaag
Hoog -- | Laag -- °F
--% Kans op neerslag
Gisteren
Hoog -- | Laag -- °F
Precip. -- inches
Druk 30.40 inches
Zicht 10.0 mijlen
Wolken Helder
Gevoelstemperatuur 13 °F
Dauwpunt -0 °F
Vochtigheid 54%
Neerslag 0.00 inches
Dikte sneeuw Niet beschikbaar.
6:42 AM 5:29 PM
Afnemende halvemaan, 27% visible
METAR KBTV 210654Z 00000KT 10SM CLR M06/M09 A3039 RMK AO2 SLP295 T10611094
Druk 30.40 inches
Zicht 10.0 mijlen
Wolken Helder
Gevoelstemperatuur 13 °F
Dauwpunt -0 °F
Vochtigheid 54%
Neerslag 0.00 inches
Dikte sneeuw Niet beschikbaar.
6:42 AM 5:29 PM
Afnemende halvemaan, 27% visible
METAR KBTV 210654Z 00000KT 10SM CLR M06/M09 A3039 RMK AO2 SLP295 T10611094

Get Your Daily Forecast Email!

Thanks for signing up!

Be on the lookout for a verification email in your inbox.

You'll start receiving the daily forecast at 8 AM.

×

10-Day Weather Forecast

Almanac

Astronomie

Feb. 21, 2017 Opkomst Ondergang
Werkelijke tijd
Burgerlijke schemering
Nautische schemering
Astronomische schemering
Maan
Golflengte van het zichtbare licht
Daglengte
Tomorrow will be .
, % of the Moon is Illuminated

Extremen vandaag

State Highs State Lows

Community

WunderPhotos

Upload Photos

1,962,540 foto’s ge-upload!

WunderBlog® & News

Nearby

Luchtkwaliteit

  Luchtkwaliteit LK-index Verontreinigende stof
Not available.

Dikte sneeuw

Station Depth Geometrische hoogte

Aardbevingen

Stad Distance Mag. Time & Date
Minimum magnitude displayed is 2.5.

Watertemperatuur langs de kust

Plaats Temperatuur

Stations

Nabije weerstations

Locatie station Temp. Gevoelstemperatuur Dauwpunt Vochtigheid Wind Precip. Hoogte Geactualiseerd Type
                   

Watches & Warnings

There are currently no watches in effect.